Timeline UpdatesTrip UpdatesNews PostsPvt PostsTravel TipsAdmin PostsConv PostsFollowed PostsChat RequestsBlog PostsPNR Posts

Disclaimer
Search
 
 
Mon Apr 21, 2014 04:58:20 ISTHomeTrainsΣChainsAtlasPNRForumGalleryNewsFAQTripsMembersLoginFeedback
No Recent News for this Train
Other Trains in the News **new
Latest...
Railways have decided to provide halt to 11301/11302 Mumbai CST-Bangalore-Mumbai CST Udyan Express at Uruli station o­n experimental basis for a period of six months with effect from 1.10.2013;Train No. 11302 Bangalore-Mumbai CST Udyan express will arrive Uruli station at 03.04 pm and leave 03.05 pm.
Fri Sep 27, 2013 (08:02PM)
⇐ Return Journey: Train# 11301

16530⇒11302/Udyan Express

Mar 10 2014 (5:07PM)
Change Departure Station:
Change Arrival Station:
Post a Train Travel TipPost a Train Travel Tip **new
Post a Comment/Question/Picture/VideoPost a Comment/Question/Picture/Video
Pantry/Catering
✕ NO Pantry Car
✓ Catering Avbl
RSA - Rake Sharing
RSA with 12115/16 Siddheshwar Express
Rake/Coach Composition
Loco < SLR-GN-S1-S2-S3-S4-S5-S6-S7-S8-S9-S10-S11-S12-H1-B1-B2-A1-A2-A3-GN+RMS-LDS
Loco
KJM WDP-4 / 4B
News    PNR    Forum    Time-Table    Availability    Fare Chart    Map    Arr/Dep History    Trips    Gallery    ΣChains    X/O    Timeline    
Travel Time: 19h 50m    28 halts    Distance: 962 km    Avg Speed: 48 km/hr
Type: Mail/Express
Zone: CR/Central
Departs @ 20:00 (Avg 6m late)
Platform# 5
SMTWTFS
Bangalore City Junction/SBC 
Arrives @ 15:50 +1 night (Avg 25m late)
Platform# 1
SMTWTFS
Pune Junction/PUNE 

28 halts. 121 intermediate Stations between Bangalore City Junction and Pune Junction

Hide intermediate Stations  Show Old Time-Table

#CodeStation NameX/OArrivesAvgDepartsAvgHaltPFDay#KmSpeedElevZoneAddress
1SBC»Bangalore City Junction (10)»  -20:00+6510.027903mSWRBengaluru-560023, Karnataka
2BNCBangalore Cantt. (4)X  20:10+1220:12+122m214.552929mSWRBengaluru-560052, Karnataka
2.1BNCEBangalore East (2)  20:15-20:15-  16.9 52915mSWRBangalore, Karnataka
2.2BYPLBaiyyappanahalli (2)  20:19-20:19-  110.9 52913mSWRBengaluru-560038, Karnataka
2.3CSDRChannasandra (1)  20:23-20:23-  113.9 52913mSWRBangalore., Karnataka
2.4THSAThanisandra  20:30-20:30-  120.2 52896mSWRBangalore, Karnataka
3YNKYelahanka Junction (4)X  20:38+2720:40+422m1126.943911mSWRBengaluru-560064, Karnataka
3.1RNNRajanukunte (2)X  20:52-20:52-  135.6 43915mSWRDoddaballapur Rd, Karnataka
4DBUDodballapur (4)  21:09+3821:10+491m2147.661896mSWRDoddaballapur, Karnataka
4.1ORHOddarahalli (1)  21:17-21:17-  155.0 61904mSWROddarahalli, Karnataka
4.2MKLMakalidurga (1)  21:27-21:27-  165.3 61833mSWRMakalidurga, Karnataka
4.3TDVThondebhavi (1)  21:36-21:36-  174.3 61755mSWRTondebavi, Karnataka
4.4SMWASomeshwara (2)  21:43-21:43-  181.1 61716mSWRState Highway 9, Karnataka
5GBDGauribidanur (1)  21:49+5221:50+531m1187.036684mSWRChikkaballapur Dist., Karnataka
5.1VWAViduraswattha (1)  22:00-22:00-  193.2 36678mSWRState Highway 9, Karnataka
5.2DPEDevarapalli (2)XO  22:11-22:11-  199.7 36674mSWRState Highway 9, Andhra Pradesh
6HUPHindupur (4)  22:29+3922:30+401m21110.494636mSWRHindupur, Andhra Pradesh
6.1MLUMalugur (2)O  22:37-22:37-  1120.9 94629mSWRHindupur, Andhra Pradesh
6.2CPLChakarlapalli (1)  22:45-22:45-  1133.6 94635mSWRAnantpur, Andhra Pradesh
6.3REPIRangepalli (2)  22:46-22:46-  1135.3 94629mSWRAnantapur Dist., Andhra Pradesh
7PKDPenukonda Junction (2)  22:54+4622:55+461m11148.071548mSWRNH 7 Anantapur District, Andhra Pradesh
7.1NRYPNarayanapuram  23:05-23:05-  1160.0 71477mSWRRayalaseema Region, Andhra Pradesh
8SSPNSri Sathya Sai Prashanthi Nilayam (4)  23:12+5023:17+485m11168.132800mSWRPuttaparthi, Andhra Pradesh
8.1KTCRKothacheruvu  23:23-23:23-  1171.1 32444mSWRKothacheruvu Railway Station, Andhra Pradesh
8.2BSPLBasampalle (1)  23:52-23:52-  1186.6 32393mSWRRayalaseema Region, Andhra Pradesh
9DMMDharmavaram Junction (5)X  00:20+3400:25+545m22201.545371mSCRDharmavaram, Andhra Pradesh
9.1CCAChigicherla (2)  00:40-00:40-  2212.9 45375mSCRChennai - Anantpur Rd, Andhra Pradesh
9.2ZPLZangalapalle (2)X  00:52-00:52-  2222.2 45372mSCRChennai - Anantpur Rd, Andhra Pradesh
9.3PSPYPrasannayana Palli (1)X  01:01-01:01-  2228.6 45367mSCRAnantapur, Andhra Pradesh
10ATPAnantapur (2)  01:09+5401:10+581m22234.945349mSCRAnantapur, Andhra Pradesh
10.1TACTaticherla (1)p01:20-01:20-  2242.3 33343mSCRAnantapur, Andhra Pradesh
10.2GDEGarladinne (2)XO  01:36-01:36-  2251.3 33338mSCRGarladinne, Andhra Pradesh
10.3KLUKalluru Junction (3)  01:56-01:56-  2262.4 33312mSCRAnantapur District, Andhra Pradesh
10.4PMDPamidi (1)  02:07-02:07-  2268.4 33307mSCRNational Highways 7, Andhra Pradesh
10.5PMDBPamidi (1)  02:10-02:10-  2270.1 33313mSCRAnantapur District, Andhra Pradesh
10.6RRJRamaraju Palli (2)  02:23-02:23-  2277.2 33329mSCRRayalaseema Region, Andhra Pradesh
10.7TKPYThurakapalli (2)X  02:32-02:32-  2282.5 33343mSCRTurakapalle, Andhra Pradesh
11GYGooty Junction (2)X  02:49+3602:50+371m32292.069370mSCRNH 7 Anantapur District, Andhra Pradesh
11.1PLUPatakottacheruvu  03:00-03:00-  2303.5 69381mSCRRayalaseema Region, Andhra Pradesh
11.2NKDONakkanadoddi  03:04-03:04-  2308.4 69391mSCRRayalaseema Region, Andhra Pradesh
11.3TIMTimmanacherla  03:12-03:12-  2317.3 69434mSCRGuntakal, Andhra Pradesh
12GTLGuntakal Junction (6)X  03:15+4403:20+455m32320.564453mSCRGuntakal. Tel: 08552-227131/32, Andhra Pradesh
12.1NLANancherla (2)  03:29-03:29-  2329.8 64477mSCRAlur, Andhra Pradesh
12.2NMLUNemakalluX  03:34-03:34-  2335.2 64467mSCRNH 67, Andhra Pradesh
12.3MGVMolagavalli (2)  03:39-03:39-  2341.1 64470mSCRPeddahoturu, Andhra Pradesh
12.4ASPAspari (2)  03:50-03:50-  2352.3 64460mSCRChinnahoturu, Andhra Pradesh
12.5NRRNagarur (2)  04:00-04:00-  2363.0 64427mSCRKurnool, Andhra Pradesh
13ADAdoni (4)  04:09+3904:10+411m42372.585420mSCRAdoni Tel: 08512-252368, Andhra Pradesh
13.1ESVIsivi (2)  04:15-04:15-  2379.0 85418mSCRadoni, Andhra Pradesh
13.2KGLKupgal (2)  04:20-04:20-  2386.9 85417mSCRKurnool Dist., Andhra Pradesh
13.3KOKosigi (2)  04:30-04:30-  2400.6 85379mSCRKurnool Dist., Andhra Pradesh
13.4EGUIranagallu  04:34-04:34-  2406.3 85358mSCRDevarabetta-518349, Andhra Pradesh
14MALMMantralayam Road (3)X  04:39+5004:40+551m22413.829335mSCRKurnool Tel: 08512-259830, Andhra Pradesh
14.1HPHHanumapuraX  04:46-04:46-  2416.5 29344mSCRState Highway 61, Karnataka
14.2MTUMatmariXO  05:03-05:03-  2424.9 29371mSCRRaichur, Karnataka
14.3MRCMarichethal  05:19-05:19-  2432.3 29380mSCRState Highway 13, Karnataka
15RCRaichur Junction (3)X  05:39+2905:40+321m22442.284406mSCRRaichur, Karnataka
15.1YSYermaras  05:46-05:46-  2451.1 84380mSCRState Highway 13, Karnataka
15.2CKChiksugar (2)  05:52-05:52-  2458.6 84363mSCRChiksugar, Karnataka
15.3YDLPYadalapur (2)X  05:56-05:56-  2464.5 84351mSCRRaichur Dist, Karnataka
16KSNKrishna (2)  05:58+3306:00+352m12467.464352mSCRDist Mahabubnagar, Andhra Pradesh
16.1CGTAChegunta (2)  06:09-06:09-  2476.6 64373mSCRMahabubnagar Dist., Andhra Pradesh
17SADPSaidapur (3)  06:19+3606:20+361m32487.687377mSCRYadgir Dist., Karnataka
17.1LGRELingiri (2)  06:29-06:29-  2500.3 87374mSCR585202, Karnataka
18YGYadgir (3)X  06:36+3806:37+391m22510.769369mSCRYadgir, Karnataka
18.1TGDEThangundi  06:45-06:45-  2520.1 69383mSCRThangundi, Karnataka
18.2SPHLShampurhalli  06:53-06:53-  2529.1 69415mSCRShampurhalli, Karnataka
19NWNalwar (2)X  06:59+3707:00+381m12536.115406mSCRGulbarga, Karnataka
20WADIWadi Junction (4)X  07:55+3408:00+395m32549.850431mCRWadi, Karnataka
21SDBShahabad (3)  08:12+3908:13+401m12559.944403mCRShahabad, Karnataka
21.1MRMartur  08:27-08:27-  2570.2 44427mCRGulbarga, Karnataka
21.2HQRHirenanduruX  08:37-08:37-  2577.8 44469mCRNandoor K, Karnataka
22GRGulbarga (4)  08:49+3008:50+361m32586.666458mCRGulbarga 585101, Karnataka
22.1BBDBablad  08:55-08:55-  2592.0 66461mCRGulburga, Karnataka
22.2SVGSawalgi  09:02-09:02-  2599.3 66462mCRGulburga, Karnataka
22.3HHDHunsihadgil  09:08-09:08-  2606.8 66479mCRGulburga, Karnataka
23GURGanagapur Road  09:14+4109:15+431m12613.058445mCRDist Gulbarga, Karnataka
23.1GDGNGaudgaon  09:21-09:21-  2619.2 58444mCRBhognalli Sindnoor Rd, Karnataka
23.2KUIKulali  09:29-09:29-  2626.5 58455mCRBhognalli - Ravoor - Dudhani Rd, Karnataka
24DUDDudhani (2)X  09:39+4509:40+501m12636.058457mCRSolapur, Maharashtra
24.1BOTBoroti  09:54-09:54-  2650.0 58466mCRSolapur, Maharashtra
24.2NGSNagansurX  10:03-10:03-  2658.5 58487mCRSolapur, Maharashtra
25AKORAkalkot Road (2)  10:09+5510:10+581m12664.035456mCRDist Solapur, Maharashtra
25.1TLTTilatiX  10:29-10:29-  2675.0 35454mCRAkalkot Road, Maharashtra
25.2HGHotgi Junction (3)  10:45-10:45-  2684.3 35473mCRHotgi 413215, Maharashtra
25.3TKWDTikekarwadi (2)  10:58-10:58-  2692.3 35477mCRSolapur, Maharashtra
26SURSolapur (5)  11:10+3911:20+4410m32699.274461mCRSolapur 413001, Maharashtra
26.1BALEBale (2)  11:25-11:25-  2705.6 74452mCRSolapur, Maharashtra
26.2PKPakni (2)X  11:33-11:33-  2715.6 74451mCRPakni, Maharashtra
26.3MVEMundhewadi (2)  11:41-11:41-  2724.5 74462mCRMundhewadi, Maharashtra
26.4MOMohol (2)  11:47-11:47-  2732.5 74458mCRSolapur, Maharashtra
26.5MKPTMalikpeth  11:54-11:54-  2741.7 74464mCRState Highway 74, Maharashtra
26.6AAGAngar  12:00-12:00-  2748.7 74470mCRAnagar Railway Station, Maharashtra
26.7WKAVakav (1)  12:05-12:05-  2755.1 74470mCRSolapur, Maharashtra
26.8MAMadha (2)X  12:11-12:11-  2762.3 74481mCRSolapur, Maharashtra
26.9WDSWadsinge  12:17-12:17-  2770.0 74493mCRWadsinge, Maharashtra
27KWVKurduvadi Junction (4)X  12:24+4612:25+481m32778.256516mCRKurduvadi Dist-Solapur, Maharashtra
27.1DHSDhavalas (2)  12:35-12:35-  2787.8 56543mCRDhavalas, Maharashtra
27.2KEMKem (2)  12:44-12:44-  2796.3 56548mCRKem, Maharashtra
27.3BLNIBhalwani (2)X  12:53-12:53-  2804.6 56521mCRBhalwani, Maharashtra
27.4JEURJeur (1)  13:01-13:01-  2812.5 56526mCRJeur, Maharashtra
27.5PPJPophlajX  13:11-13:11-  2821.1 56529mCRJeur - Kettur Road, Maharashtra
27.6WSBWashimbe (1)  13:21-13:21-  2830.5 56529mCRWashimbe, Maharashtra
27.7PRWDParewadi (2)  13:28-13:28-  2837.7 56515mCRIndapur, Maharashtra
27.8JNTRJinti RoadX  13:38-13:38-  2846.9 56530mCRDaund, Maharashtra
27.9BGVNBhigwan (2)  13:50-13:50-  2858.5 56509mCRDaund, Maharashtra
27.10MLMMalthan  14:00-14:00-  2867.5 56524mCRDaund, Maharashtra
27.11BRBBoribial  14:09-14:09-  2875.9 56527mCRNew Daund, Maharashtra
28DDDaund Junction (7)  14:20+2814:25+305m52886.272521mCRNew Daund Dist. Pune 413801, Maharashtra
28.1DDAMDaund Marshalling Yard  14:26-14:26-  2886.8 72517mCROld Daund, Maharashtra
28.2DDJADaund Goods Yard (2)  14:26-14:26-  2887.8 72515mCRNew Daund, Maharashtra
28.3DDAPDaund Patas Road  14:31-14:31-  2893.9 72523mCRDaund, Maharashtra
28.4PAAPatas (3)  14:35-14:35-  2897.8 72532mCRDist. Pune 412219, Maharashtra
28.5KDTNKadethan  14:39-14:39-  2902.6 72532mCRDaund, Maharashtra
28.6KDGKedgaon (2)  14:43-14:43-  2907.7 72544mCRDist. Pune 412203, Maharashtra
28.7KTTKhutbav  14:48-14:48-  2914.1 72558mCRShirur-Daund Rd Daund, Maharashtra
28.8YTYevat (2)X  14:53-14:53-  2920.3 72550mCRDist. Pune 412214, Maharashtra
29URIUruli (2)X15:04+3215:05+331m12933.038553mCRDist. Pune 412202, Maharashtra
29.1LONILoni (2)X  15:24-15:24-  2945.3 38541mCRPune 412201, Maharashtra
29.2MJBKManjari Budruk (2)X  15:33-15:33-  2951.0 38550mCRPune 412307, Maharashtra
29.3HDPHadapsar (3)  15:41-15:41-  2955.9 38554mCRPune 411028, Maharashtra
29.4GPRWGhorpuri West (2)X  15:47-15:47-  2959.5 38552mCRPune 411001, Maharashtra
30PUNE•Pune Junction (6)•X  15:50+2515:55+305m12961.755556mCRPune 411001, Maharashtra
30.1SVJRShivajinagar (2)X  15:58-15:58-  2964.1 55549mCRPune 411005, Maharashtra
30.2KKKhadki (3)  16:02-16:02-  2967.7 55562mCRPune 411003, Maharashtra
30.3DAPDDapodi (2)  16:04-16:04-  2969.9 55558mCRPune 411012, Maharashtra
30.4KSWDKasarwadi (2)O  16:07-16:07-  2973.2 55558mCRPune 411034, Maharashtra
30.5PMPPimpri (2)X  16:10-16:10-  2975.8 55570mCRPune 411018, Maharashtra
30.6CCHChinchwad (4)  16:13-16:13-  2978.1 55573mCRPune 411033, Maharashtra
30.7AKRDAkurdi (2)  16:16-16:16-  2981.2 55583mCRPune 411035, Maharashtra
30.8DEHRDehu Road (4)X  16:22-16:22-  2986.2 55611mCRDehu 412101, Maharashtra
30.9BGWBegdewadi (2)  16:25-16:25-  2989.7 55594mCRBegdewadi, Maharashtra
30.10BGWIBegdaewadi  16:25-16:25-  2989.8 55594mCRTalegaon, Maharashtra
30.11SLRWShelarwadi (2)  16:26-16:26-  2990.0 55594mCRShelarwadi Dist. Pune, Maharashtra
30.12GRWDGhorawadi (2)  16:29-16:29-  2992.8 55596mCRGhorawadi, Maharashtra
30.13TGNTalegaon (2)X  16:32-16:32-  2995.8 55619mCRTalegaon Dabhade 410501, Maharashtra
30.14VDNVadgaon (2)  16:36-16:36-  2999.9 55623mCRVadgaon, Maharashtra
30.15KNHEKanhe (2)  16:42-16:42-  21004.9 55626mCRKanhe, Maharashtra
30.16KMSTKamshet (2)X  16:47-16:47-  21009.5 55607mCRDist. Pune 410405, Maharashtra
30.17MVLMalavli (2)  16:56-16:56-  21018.2 55616mCRMalavli 410405, Maharashtra
31LNLLonavala (3)X  17:04+2117:05+231m221025.456623mCRLonavala 410401, Maharashtra
32KADKhandala (3)T17:09+3317:10+321m221029.148545mCR410301, Maharashtra
32.1MHLCMonkey Hill (2)  17:17-17:17-  21034.3 48414mCRKhandala, Maharashtra
32.2NAGCNagargaliX  17:21-17:21-  21038.1 48354mCRKhopoli, Maharashtra
32.3NNCNNagnath Cabin (1)  17:25-17:25-  21041.3 48289mCRDolavali Khopoli (Chinchavali Marge), Maharashtra
32.4TKWThakurvadiX  17:25-17:25-  21041.6 48281mCRKhandala, Maharashtra
32.5PDIPalasdhari (4)  17:37-17:37-  21051.1 4867mCRDist Raigad, Maharashtra
32.6KJTKarjat Junction (4)  17:41-17:41-  21054.0 4857mCRKarjat, Maharashtra
32.7BVSBhivpuri Road (2)  17:49-17:49-  21060.9 4850mCRBhivpuri Road, Maharashtra
32.8NRLNeral Junction (2)  17:58-17:58-  21067.6 4842mCRNeral-410101 Dist. Raigad, Maharashtra
32.9SHLUShelu (2)  18:03-18:03-  21071.8 4840mCRShelu, Maharashtra
32.10VGIVangani (2)X  18:08-18:08-  21075.7 4842mCRVangani, Maharashtra
32.11BUDBadlapur (3)  18:21-18:21-  21086.5 4818mCRBadlapur-421 503, Maharashtra
32.12ABHAmbernath (3)  18:31-18:31-  21094.2 4823mCRMaharashtra 421502, Maharashtra
32.13ULNRUlhasnagar (2)  18:34-18:34-  21096.6 4814mCRUlhasnagar Camp No.3, Maharashtra
32.14VLDIVithalwadi (2)  18:36-18:36-  21098.5 4813mCRVitthalwadi, Maharashtra
33KYNKalyan Junction (8)  18:39+1818:40+191m621100.96110mCRKalyan 421301, Maharashtra
33.1THKThakurli (2)X  18:44-18:44-  21104.5 6114mCRThakurli, Maharashtra
33.2DIDombivli (5)  18:45-18:45-  21105.9 6111mCRDombivli, Maharashtra
33.3KOPRKopar (4)  18:46-18:46-  21107.2 610mCRKopar, Maharashtra
33.4DIVADiva Junction (6)  18:51-18:51-  21111.5 613mCRJn Pt TNA/PNVL/KYN/BSR Diva, Maharashtra
33.5MBQMumbra (2)X  18:53-18:53-  21114.1 618mCRMumbra, Maharashtra
33.6KLVAKalva (2)  18:58-18:58-  21118.6 615mCRKalva, Maharashtra
33.7TNAThane (10)  19:00-19:00-  21121.1 6110mCRThane, Maharashtra
33.8MLNDMulund (4)  19:03-19:03-  21123.6 6112mCRMumbai, Maharashtra
33.9NHUNahur (2)  19:05-19:05-  21125.8 615mCRMumbai, Maharashtra
33.10BNDBhandup (4)  19:06-19:06-  21127.5 617mCRMumbai 400078, Maharashtra
33.11KJMGKanjur Marg (2)X  19:08-19:08-  21129.4 615mCRMumbai, Maharashtra
33.12VKVikhroli (4)  19:10-19:10-  21131.2 6110mCRMumbai, Maharashtra
33.13GCGhatkopar (4)  19:14-19:14-  21134.9 6111mCRMumbai 400086, Maharashtra
33.14VVHVidyavihar (2)  19:15-19:15-  21136.2 618mCRMumbai, Maharashtra
33.15LTTMumbai Lokmanya Tilak Terminus (5)  19:16-19:16-  21137.6 617mCRMumbai, Maharashtra
33.16CLAKurla Junction (8)  19:17-19:17-  21138.7 618mCRMumbai, Maharashtra
33.17SINMumbai Sion (4)  19:20-19:20-  21141.3 617mCRMumbai, Maharashtra
33.18MTNMumbai Matunga (4)  19:23-19:23-  21143.9 617mCRMumbai, Maharashtra
34DRMumbai Dadar Central (8)X  19:24+1819:25+221m621145.3177mCRMumbai 400014, Maharashtra
34.1PRMumbai Parel (4)  19:29-19:29-  21146.3 176mCRMumbai, Maharashtra
34.2CRDMumbai Currey Road (2)  19:35-19:35-  21148.2 175mCRMumbai, Maharashtra
34.3CHGMumbai Chinchpokli (2)  19:38-19:38-  21148.9 176mCRMumbai, Maharashtra
34.4BYByculla (4)X  19:42-19:42-  21150.1 179mCRMumbai 400027, Maharashtra
34.5SNRDMumbai Sandhurst Road (4)  19:48-19:48-  21151.9 179mCRMumbai, Maharashtra
34.6MSDMumbai Masjid (4)  19:52-19:52-  21153.1 1710mCRMumbai, Maharashtra
35CSTMMumbai CST (18)  19:55+10-1521154.0-10mCRMumbai 400001, Maharashtra
Scroll to Top
Scroll to Bottom